| time (UTC) | temp F | wind direction | speed knots | gust knots | rain 1hr in | rain 24hr in | rain mn in | humidity % | barometer mb |
| 20260505052007 | 50 | 346 | 0.0 | 0.0 | 0.00 | 0.04 | 0.04 | 97 | 1014.4 |
| 20260505051002 | 49 | 346 | 0.0 | 0.0 | 0.00 | 0.04 | 0.04 | 97 | 1013.9 |
| 20260505041000 | 49 | 347 | 0.0 | 0.0 | 0.00 | 0.04 | 0.04 | 97 | 1013.7 |
| 20260505040000 | 49 | 340 | 0.0 | 0.0 | 0.00 | 0.04 | 0.04 | 97 | 1013.3 |
| 20260505034959 | 49 | 340 | 0.0 | 0.0 | 0.00 | 0.04 | 0.04 | 97 | 1013.5 |
| 20260505033958 | 49 | 335 | 0.0 | 0.0 | 0.00 | 0.04 | 0.04 | 97 | 1013.6 |
| 20260505032953 | 49 | 347 | 0.0 | 0.0 | 0.00 | 0.04 | 0.04 | 96 | 1013.3 |
| 20260505031952 | 49 | 347 | 0.0 | 0.0 | 0.00 | 0.04 | 0.04 | 96 | 1013.5 |
| 20260505030952 | 50 | 348 | 0.0 | 0.0 | 0.00 | 0.04 | 0.04 | 96 | 1013.3 |
| 20260505025949 | 49 | 338 | 0.0 | 0.0 | 0.00 | 0.04 | 0.04 | 96 | 1012.9 |
| 20260505024945 | 50 | 343 | 0.0 | 0.0 | 0.00 | 0.04 | 0.04 | 96 | 1012.9 |
| 20260505023945 | 49 | 346 | 0.0 | 0.0 | 0.00 | 0.04 | 0.04 | 97 | 1013.0 |
| 20260505022945 | 50 | 347 | 0.0 | 0.0 | 0.00 | 0.04 | 0.04 | 96 | 1012.8 |
| 20260505021940 | 50 | 343 | 0.0 | 0.0 | 0.00 | 0.04 | 0.04 | 96 | 1012.4 |
| 20260505020938 | 50 | 336 | 0.0 | 0.0 | 0.00 | 0.04 | 0.04 | 96 | 1012.8 |
| 20260505015936 | 50 | 343 | 0.0 | 0.0 | 0.00 | 0.04 | 0.04 | 96 | 1012.6 |
| 20260505014931 | 51 | 340 | 0.0 | 0.9 | 0.00 | 0.04 | 0.04 | 96 | 1012.6 |
| 20260505013930 | 51 | 311 | 0.9 | 0.9 | 0.00 | 0.04 | 0.04 | 97 | 1012.5 |
| 20260505012925 | 50 | 340 | 0.0 | 0.0 | 0.00 | 0.04 | 0.04 | 97 | 1012.9 |
| 20260505011925 | 51 | 343 | 0.0 | 0.0 | 0.00 | 0.04 | 0.04 | 97 | 1012.9 |
| 20260505010924 | 51 | 353 | 0.0 | 0.0 | 0.00 | 0.04 | 0.04 | 96 | 1012.9 |
| 20260505005922 | 51 | 347 | 0.0 | 0.0 | 0.00 | 0.04 | 0.04 | 95 | 1012.9 |
| 20260505004922 | 51 | 347 | 0.0 | 0.0 | 0.00 | 0.04 | 0.04 | 93 | 1012.8 |
| 20260505003921 | 52 | 21 | 0.9 | 0.9 | 0.07 | 0.04 | 0.04 | 89 | 1012.5 |
| 20260505002920 | 52 | 289 | 0.9 | 0.9 | 0.00 | 0.03 | 0.03 | 84 | 1012.5 |
| 20260505001915 | 54 | 9 | 0.9 | 0.9 | 0.00 | 0.02 | 0.02 | 77 | 1012.3 |
| 20260505000910 | 56 | 289 | 0.9 | 1.7 | 0.07 | 0.02 | 0.02 | 62 | 1012.4 |
| 20260504235910 | 60 | 268 | 4.3 | 5.2 | 0.00 | 0.01 | 0.01 | 55 | 1012.2 |
| 20260504234909 | 62 | 226 | 0.9 | 0.9 | 0.00 | 0.01 | 0.01 | 46 | 1011.5 |
| 20260504233909 | 62 | 340 | 0.0 | 0.0 | 0.00 | 0.01 | 0.01 | 46 | 1011.6 |
| 20260504232907 | 63 | 301 | 0.9 | 0.9 | 0.00 | 0.01 | 0.01 | 47 | 1011.4 |
| 20260504231907 | 64 | 346 | 0.0 | 0.0 | 0.00 | 0.01 | 0.01 | 48 | 1011.1 |
| 20260504230906 | 64 | 352 | 0.9 | 1.7 | 0.00 | 0.01 | 0.01 | 42 | 1011.0 |
| 20260504225902 | 64 | 340 | 0.9 | 0.9 | 0.00 | 0.01 | 0.01 | 41 | 1010.8 |
| 20260504224902 | 67 | 353 | 0.9 | 0.9 | 0.00 | 0.01 | 0.01 | 40 | 1010.9 |
| 20260504223900 | 65 | 263 | 1.7 | 1.7 | 0.00 | 0.01 | 0.01 | 40 | 1010.7 |
| 20260504222858 | 63 | 335 | 1.7 | 1.7 | 0.00 | 0.01 | 0.01 | 45 | 1010.6 |
| 20260504221854 | 62 | 347 | 0.0 | 0.0 | 0.00 | 0.01 | 0.01 | 48 | 1010.7 |
| 20260504220853 | 63 | 17 | 2.6 | 2.6 | 0.00 | 0.01 | 0.01 | 44 | 1011.0 |
| 20260504215853 | 63 | 42 | 0.9 | 0.9 | 0.00 | 0.01 | 0.01 | 46 | 1011.0 |
| 20260504214851 | 63 | 54 | 0.9 | 1.7 | 0.00 | 0.01 | 0.01 | 48 | 1011.3 |
| 20260504213850 | 62 | 329 | 0.0 | 0.9 | 0.00 | 0.01 | 0.01 | 50 | 1011.4 |
| 20260504212849 | 62 | 348 | 0.9 | 1.7 | 0.00 | 0.01 | 0.01 | 51 | 1011.5 |
| 20260504211849 | 59 | 345 | 0.9 | 0.9 | 0.00 | 0.01 | 0.01 | 58 | 1011.6 |
| 20260504210849 | 57 | 345 | 0.0 | 0.9 | 0.00 | 0.01 | 0.01 | 67 | 1011.4 |
| 20260504205848 | 59 | 21 | 3.5 | 4.3 | 0.05 | 0.01 | 0.01 | 58 | 1011.9 |
| 20260504204844 | 61 | 78 | 1.7 | 2.6 | 0.00 | 0.00 | 0.00 | 47 | 1012.4 |
| 20260504203841 | 61 | 331 | 0.9 | 1.7 | 0.00 | 0.00 | 0.00 | 45 | 1012.2 |
| 20260504202840 | 61 | 14 | 2.6 | 4.3 | 0.00 | 0.00 | 0.00 | 48 | 1012.3 |
| 20260504201839 | 61 | 54 | 1.7 | 2.6 | 0.00 | 0.00 | 0.00 | 50 | 1012.3 |
| 20260504200834 | 60 | 347 | 0.0 | 0.0 | 0.00 | 0.00 | 0.00 | 51 | 1012.3 |
| 20260504195833 | 61 | 357 | 0.0 | 1.7 | 0.00 | 0.00 | 0.00 | 51 | 1012.3 |
| 20260504194831 | 62 | 4 | 2.6 | 2.6 | 0.00 | 0.00 | 0.00 | 43 | 1012.2 |
| 20260504193829 | 62 | 342 | 0.9 | 0.9 | 0.00 | 0.00 | 0.00 | 46 | 1011.9 |
| 20260504192825 | 64 | 55 | 3.5 | 8.7 | 0.00 | 0.00 | 0.00 | 45 | 1011.5 |
| 20260504191821 | 63 | 340 | 0.9 | 1.7 | 0.00 | 0.00 | 0.00 | 49 | 1010.9 |
| 20260504190819 | 63 | 311 | 1.7 | 2.6 | 0.00 | 0.00 | 0.00 | 50 | 1010.9 |
| 20260504185818 | 66 | 350 | 0.9 | 1.7 | 0.00 | 0.00 | 0.00 | 39 | 1010.8 |
| 20260504184817 | 68 | 353 | 1.7 | 1.7 | 0.00 | 0.00 | 0.00 | 31 | 1010.3 |
| 20260504183814 | 71 | 195 | 0.9 | 1.7 | 0.00 | 0.00 | 0.00 | 26 | 1010.3 |
| 20260504182810 | 71 | 344 | 0.0 | 0.0 | 0.00 | 0.00 | 0.00 | 27 | 1010.2 |
| 20260504181810 | 72 | 351 | 1.7 | 1.7 | 0.00 | 0.00 | 0.00 | 25 | 1010.1 |
| 20260504180806 | 72 | 7 | 1.7 | 1.7 | 0.00 | 0.00 | 0.00 | 26 | 1010.1 |
| 20260504175802 | 74 | 338 | 0.9 | 1.7 | 0.00 | 0.00 | 0.00 | 26 | 1010.3 |
| 20260504174802 | 76 | 6 | 1.7 | 2.6 | 0.00 | 0.00 | 0.00 | 24 | 1010.4 |
| 20260504173802 | 75 | 351 | 0.0 | 0.0 | 0.00 | 0.00 | 0.00 | 23 | 1010.3 |
| 20260504172802 | 75 | 301 | 2.6 | 2.6 | 0.00 | 0.00 | 0.00 | 24 | 1010.7 |
| 20260504171800 | 75 | 345 | 0.9 | 1.7 | 0.00 | 0.00 | 0.00 | 23 | 1010.4 |
| 20260504170755 | 74 | 343 | 0.0 | 0.0 | 0.00 | 0.00 | 0.00 | 24 | 1010.6 |
| 20260504150733 | 59 | 20 | 0.9 | 0.9 | 0.00 | 0.00 | 0.00 | 45 | 1011.3 |
| 20260504140731 | 49 | 346 | 0.9 | 0.9 | 0.00 | 0.00 | 0.00 | 66 | 1011.8 |
| 20260504130719 | 41 | 7 | 0.0 | 0.9 | 0.00 | 0.00 | 0.00 | 76 | 1011.5 |
| 20260504110652 | 37 | 343 | 0.0 | 0.0 | 0.00 | 0.00 | 0.00 | 79 | 1011.8 |
| 20260504081621 | 42 | 351 | 0.0 | 0.0 | 0.00 | 0.00 | 0.00 | 68 | 1013.0 |
| 20260504080620 | 43 | 345 | 0.0 | 0.0 | 0.00 | 0.00 | 0.00 | 66 | 1013.1 |